ADDS METAR Data INFO
IDs: Format: Raw Decoded Include TAF

Data at: 1307 UTC 19 Jul 2018

KBGE 191255Z AUTO 00000KT 3SM OVC004 26/24 A2995 RMK AO2
KBGE 191235Z AUTO 25004KT 4SM OVC004 26/24 A2995 RMK AO2
KBGE 191215Z AUTO 00000KT 4SM OVC004 26/24 A2994 RMK AO2
KBGE 191155Z AUTO 00000KT 4SM OVC004 26/24 A2994 RMK AO2
KBGE 191135Z AUTO 00000KT 4SM OVC004 25/23 A2994 RMK AO2
KBGE 191115Z AUTO 00000KT 4SM OVC004 25/23 A2993 RMK AO2
KBGE 191055Z AUTO 00000KT 5SM BKN004 BKN065 25/23 A2993 RMK AO2
KBGE 191035Z AUTO 00000KT 5SM OVC004 25/23 A2993 RMK AO2
KBGE 191015Z AUTO 00000KT 5SM BKN002 25/23 A2992 RMK AO2
KBGE 190955Z AUTO 00000KT 4SM SCT002 SCT006 25/23 A2991 RMK AO2
KBGE 190935Z AUTO 00000KT 5SM CLR 25/23 A2991 RMK AO2
KBGE 190915Z AUTO 00000KT 5SM SCT002 25/23 A2990 RMK AO2
KBGE 190855Z AUTO 00000KT 4SM SCT002 25/23 A2990 RMK AO2
KBGE 190835Z AUTO 00000KT 5SM SCT002 25/23 A2990 RMK AO2
KBGE 190815Z AUTO 00000KT 5SM CLR 25/23 A2989 RMK AO2
KBGE 190755Z AUTO 00000KT 5SM CLR 26/23 A2989 RMK AO2
KBGE 190735Z AUTO 00000KT 5SM CLR 26/23 A2990 RMK AO2
KBGE 190715Z AUTO 00000KT 5SM CLR 26/23 A2989 RMK AO2
KBGE 190655Z AUTO 18003KT 5SM CLR 26/23 A2990 RMK AO2
KBGE 190635Z AUTO 00000KT 7SM CLR 26/23 A2990 RMK AO2
KBGE 190615Z AUTO 00000KT 7SM CLR 26/23 A2990 RMK AO2
KBGE 190555Z AUTO 00000KT 7SM CLR 26/24 A2991 RMK AO2
KBGE 190535Z AUTO 00000KT 7SM CLR 26/24 A2992 RMK AO2
KBGE 190515Z AUTO 00000KT 10SM SCT010 26/24 A2993 RMK AO2
KBGE 190455Z AUTO 00000KT 10SM CLR 26/24 A2993 RMK AO2
KBGE 190435Z AUTO 00000KT 10SM CLR 26/24 A2993 RMK AO2
KBGE 190415Z AUTO 00000KT 10SM CLR 27/24 A2993 RMK AO2
KBGE 190355Z AUTO 00000KT 10SM CLR 27/24 A2994 RMK AO2
KBGE 190335Z AUTO 00000KT 10SM CLR 27/23 A2994 RMK AO2
KBGE 190315Z AUTO 00000KT 10SM CLR 27/23 A2994 RMK AO2
KBGE 190255Z AUTO 23004KT 10SM CLR 27/23 A2995 RMK AO2
KBGE 190235Z AUTO 00000KT 10SM CLR 27/23 A2995 RMK AO2
KBGE 190215Z AUTO 00000KT 10SM CLR 27/24 A2994 RMK AO2
KBGE 190155Z AUTO 26003KT 10SM CLR 27/24 A2993 RMK AO2
KBGE 190135Z AUTO 24004KT 10SM SCT050 SCT070 28/24 A2993 RMK AO2
KBGE 190115Z AUTO 23005KT 10SM BKN050 BKN060 28/24 A2992 RMK AO2
KBGE 190055Z AUTO 22004KT 10SM SCT060 28/23 A2991 RMK AO2
KBGE 190035Z AUTO 22005KT 10SM SCT060 28/23 A2991 RMK AO2
KBGE 190015Z AUTO 21004KT 10SM CLR 28/23 A2990 RMK AO2
KBGE 182355Z AUTO 21005KT 10SM CLR 29/23 A2991 RMK AO2
KBGE 182335Z AUTO 23008KT 10SM SCT017 SCT031 SCT039 29/23 A2990 RMK AO2
KBGE 182315Z AUTO 20008KT 10SM SCT017 BKN039 OVC050 30/24 A2990 RMK AO2
KBGE 182255Z AUTO 20009KT 10SM SCT031 SCT035 BKN042 31/23 A2990 RMK AO2
KBGE 182235Z AUTO 18007KT 10SM BKN042 BKN050 32/23 A2989 RMK AO2
KBGE 182215Z AUTO 00000KT 10SM CLR 33/22 A2989 RMK AO2
KBGE 182155Z AUTO 29004KT 10SM SCT039 34/22 A2990 RMK AO2
KBGE 182135Z AUTO 00000KT 10SM CLR 34/22 A2990 RMK AO2
KBGE 182115Z AUTO 00000KT 10SM CLR 34/22 A2989 RMK AO2
KBGE 182055Z AUTO 26003KT 10SM CLR 34/21 A2990 RMK AO2
KBGE 182035Z AUTO 00000KT 10SM CLR 34/22 A2990 RMK AO2
KBGE 182015Z AUTO 33003KT 10SM CLR 33/21 A2991 RMK AO2
KBGE 181955Z AUTO 31004KT 10SM CLR 33/22 A2992 RMK AO2
KBGE 181935Z AUTO 00000KT 10SM CLR 33/21 A2993 RMK AO2
KBGE 181915Z AUTO 25005KT 10SM CLR 33/23 A2993 RMK AO2
KBGE 181855Z AUTO 23003KT 10SM SCT031 33/22 A2993 RMK AO2
KBGE 181835Z AUTO 26005KT 10SM SCT031 33/23 A2995 RMK AO2
KBGE 181815Z AUTO 00000KT 10SM SCT029 33/23 A2995 RMK AO2
KBGE 181755Z AUTO 00000KT 10SM SCT027 32/23 A2996 RMK AO2
KBGE 181735Z AUTO 00000KT 10SM CLR 32/23 A2996 RMK AO2
KBGE 181715Z AUTO 24005KT 10SM SCT028 SCT033 SCT046 32/23 A2997 RMK AO2
KBGE 181655Z AUTO 27004KT 10SM SCT028 SCT033 SCT039 31/23 A2998 RMK AO2
KBGE 181635Z AUTO 21004KT 10SM SCT026 SCT032 32/23 A2998 RMK AO2
KBGE 181615Z AUTO 26004KT 10SM SCT024 31/23 A2999 RMK AO2
KBGE 181555Z AUTO 23006KT 10SM SCT022 31/23 A2999 RMK AO2
KBGE 181535Z AUTO 00000KT 10SM SCT019 31/23 A2999 RMK AO2
KBGE 181515Z AUTO 00000KT 10SM SCT019 30/23 A2999 RMK AO2
KBGE 181455Z AUTO 00000KT 10SM SCT019 30/23 A3000 RMK AO2
KBGE 181435Z AUTO 00000KT 10SM SCT017 30/23 A3000 RMK AO2
KBGE 181415Z AUTO 28004KT 10SM CLR 29/23 A3000 RMK AO2
KBGE 181355Z AUTO 00000KT 10SM CLR 28/23 A3000 RMK AO2
KBGE 181335Z AUTO 25004KT 10SM SCT010 28/23 A3000 RMK AO2
KBGE 181315Z AUTO 23003KT 10SM SCT005 27/23 A3000 RMK AO2
KBGE 181255Z AUTO 23004KT 10SM SCT005 27/23 A3000 RMK AO2
KBGE 181235Z AUTO 25004KT 10SM BKN005 26/23 A3000 RMK AO2
KBGE 181215Z AUTO 24003KT 10SM SCT005 26/23 A3000 RMK AO2
KBGE 181155Z AUTO 27003KT 7SM CLR 26/23 A3000 RMK AO2
KBGE 181135Z AUTO 24003KT 7SM CLR 25/23 A3000 RMK AO2
KBGE 181115Z AUTO 00000KT 7SM CLR 25/23 A2999 RMK AO2
KBGE 181055Z AUTO 23003KT 7SM CLR 25/23 A2998 RMK AO2
KBGE 181035Z AUTO 23003KT 10SM CLR 25/23 A2998 RMK AO2
KBGE 181015Z AUTO 22003KT 7SM CLR 25/23 A2998 RMK AO2
KBGE 180955Z AUTO 00000KT 7SM SCT017 BKN050 25/23 A2998 RMK AO2
KBGE 180935Z AUTO 00000KT 10SM SCT017 SCT050 25/23 A2998 RMK AO2
KBGE 180915Z AUTO 23003KT 10SM CLR 25/23 A2997 RMK AO2
KBGE 180855Z AUTO 00000KT 10SM CLR 25/23 A2997 RMK AO2
KBGE 180835Z AUTO 22003KT 10SM CLR 25/23 A2997 RMK AO2
KBGE 180815Z AUTO 22003KT 10SM CLR 25/23 A2997 RMK AO2
KBGE 180755Z AUTO 00000KT 10SM CLR 26/23 A2998 RMK AO2
KBGE 180735Z AUTO 00000KT 10SM CLR 26/23 A2997 RMK AO2
KBGE 180715Z AUTO 22003KT 10SM CLR 26/23 A2997 RMK AO2
KBGE 180655Z AUTO 22004KT 10SM CLR 26/23 A2998 RMK AO2
KBGE 180635Z AUTO 21003KT 10SM CLR 26/23 A2999 RMK AO2
KBGE 180615Z AUTO 22003KT 10SM CLR 26/23 A3000 RMK AO2
KBGE 180555Z AUTO 24003KT 10SM CLR 26/23 A3000 RMK AO2
KBGE 180535Z AUTO 00000KT 10SM CLR 26/23 A3000 RMK AO2
KBGE 180515Z AUTO 00000KT 10SM CLR 27/23 A3000 RMK AO2
KBGE 180455Z AUTO 22003KT 10SM CLR 27/23 A3000 RMK AO2
KBGE 180435Z AUTO 21003KT 10SM CLR 27/23 A3000 RMK AO2
KBGE 180415Z AUTO 22004KT 10SM CLR 27/23 A3000 RMK AO2
KBGE 180355Z AUTO 00000KT 10SM CLR 27/23 A3000 RMK AO2
KBGE 180335Z AUTO 22003KT 10SM CLR 27/23 A3000 RMK AO2
KBGE 180315Z AUTO 24003KT 10SM SCT032 SCT038 27/24 A3001 RMK AO2
KBGE 180255Z AUTO 23003KT 10SM SCT007 SCT036 27/24 A3001 RMK AO2
KBGE 180235Z AUTO 00000KT 10SM CLR 28/23 A3001 RMK AO2
KBGE 180215Z AUTO 00000KT 10SM CLR 28/23 A3000 RMK AO2
KBGE 180155Z AUTO 00000KT 10SM CLR 28/23 A2999 RMK AO2
KBGE 180135Z AUTO 23003KT 10SM SCT042 SCT050 SCT095 28/23 A3000 RMK AO2
KBGE 180115Z AUTO 23004KT 10SM CLR 28/23 A2999 RMK AO2